sensor_id;sensor_type;location;lat;lon;timestamp;P1;durP1;ratioP1;P2;durP2;ratioP2
12181;SDS011;6154;51.550;12.138;2023-05-27T00:02:26;4.70;;;2.05;;
12181;SDS011;6154;51.550;12.138;2023-05-27T00:04:54;2.83;;;2.03;;
12181;SDS011;6154;51.550;12.138;2023-05-27T00:07:24;7.55;;;1.65;;
12181;SDS011;6154;51.550;12.138;2023-05-27T00:09:55;3.80;;;1.67;;
12181;SDS011;6154;51.550;12.138;2023-05-27T00:12:27;7.53;;;2.50;;
12181;SDS011;6154;51.550;12.138;2023-05-27T00:14:55;5.07;;;1.77;;
12181;SDS011;6154;51.550;12.138;2023-05-27T00:17:23;6.45;;;2.30;;
12181;SDS011;6154;51.550;12.138;2023-05-27T00:19:52;7.18;;;2.37;;
12181;SDS011;6154;51.550;12.138;2023-05-27T00:22:21;6.00;;;2.20;;
12181;SDS011;6154;51.550;12.138;2023-05-27T00:24:51;6.32;;;2.45;;
12181;SDS011;6154;51.550;12.138;2023-05-27T00:27:19;6.60;;;2.15;;
12181;SDS011;6154;51.550;12.138;2023-05-27T00:29:47;7.65;;;2.30;;
12181;SDS011;6154;51.550;12.138;2023-05-27T00:32:15;6.07;;;1.95;;
12181;SDS011;6154;51.550;12.138;2023-05-27T00:34:44;6.20;;;2.12;;
12181;SDS011;6154;51.550;12.138;2023-05-27T00:37:12;7.28;;;2.67;;
12181;SDS011;6154;51.550;12.138;2023-05-27T00:39:41;12.45;;;2.90;;
12181;SDS011;6154;51.550;12.138;2023-05-27T00:42:11;4.35;;;1.87;;
12181;SDS011;6154;51.550;12.138;2023-05-27T00:44:40;8.15;;;2.62;;
12181;SDS011;6154;51.550;12.138;2023-05-27T00:47:09;10.02;;;2.30;;
12181;SDS011;6154;51.550;12.138;2023-05-27T00:49:37;5.43;;;2.12;;
12181;SDS011;6154;51.550;12.138;2023-05-27T00:52:06;6.57;;;2.33;;
12181;SDS011;6154;51.550;12.138;2023-05-27T00:54:34;5.15;;;2.45;;
12181;SDS011;6154;51.550;12.138;2023-05-27T00:57:03;7.03;;;2.65;;
12181;SDS011;6154;51.550;12.138;2023-05-27T00:59:34;10.98;;;2.85;;
12181;SDS011;6154;51.550;12.138;2023-05-27T01:02:02;5.95;;;2.28;;
12181;SDS011;6154;51.550;12.138;2023-05-27T01:04:31;9.20;;;2.92;;
12181;SDS011;6154;51.550;12.138;2023-05-27T01:07:01;6.45;;;2.10;;
12181;SDS011;6154;51.550;12.138;2023-05-27T01:09:38;7.62;;;2.33;;
12181;SDS011;6154;51.550;12.138;2023-05-27T01:12:10;12.25;;;2.42;;
12181;SDS011;6154;51.550;12.138;2023-05-27T01:14:45;6.72;;;2.10;;
12181;SDS011;6154;51.550;12.138;2023-05-27T01:17:17;6.43;;;3.00;;
12181;SDS011;6154;51.550;12.138;2023-05-27T01:19:46;8.43;;;2.53;;
12181;SDS011;6154;51.550;12.138;2023-05-27T01:22:17;5.18;;;2.20;;
12181;SDS011;6154;51.550;12.138;2023-05-27T01:24:50;8.35;;;2.58;;
12181;SDS011;6154;51.550;12.138;2023-05-27T01:27:18;12.40;;;3.12;;
12181;SDS011;6154;51.550;12.138;2023-05-27T01:29:48;8.27;;;2.37;;
12181;SDS011;6154;51.550;12.138;2023-05-27T01:32:16;4.28;;;2.17;;
12181;SDS011;6154;51.550;12.138;2023-05-27T01:34:51;5.12;;;2.75;;
12181;SDS011;6154;51.550;12.138;2023-05-27T01:37:23;7.12;;;2.28;;
12181;SDS011;6154;51.550;12.138;2023-05-27T01:39:57;7.70;;;3.05;;
12181;SDS011;6154;51.550;12.138;2023-05-27T01:42:28;9.88;;;3.28;;
12181;SDS011;6154;51.550;12.138;2023-05-27T01:44:57;5.57;;;2.17;;
12181;SDS011;6154;51.550;12.138;2023-05-27T01:47:27;8.98;;;2.47;;
12181;SDS011;6154;51.550;12.138;2023-05-27T01:49:55;7.78;;;2.85;;
12181;SDS011;6154;51.550;12.138;2023-05-27T01:52:23;10.52;;;2.97;;
12181;SDS011;6154;51.550;12.138;2023-05-27T01:54:52;8.57;;;2.78;;
12181;SDS011;6154;51.550;12.138;2023-05-27T01:57:24;7.00;;;2.87;;
12181;SDS011;6154;51.550;12.138;2023-05-27T01:59:53;11.32;;;2.65;;
12181;SDS011;6154;51.550;12.138;2023-05-27T02:02:22;5.05;;;2.40;;
12181;SDS011;6154;51.550;12.138;2023-05-27T02:04:50;8.32;;;2.70;;
12181;SDS011;6154;51.550;12.138;2023-05-27T02:07:19;8.80;;;2.42;;
12181;SDS011;6154;51.550;12.138;2023-05-27T02:09:48;5.30;;;2.42;;
12181;SDS011;6154;51.550;12.138;2023-05-27T02:12:17;8.02;;;2.58;;
12181;SDS011;6154;51.550;12.138;2023-05-27T02:14:47;10.00;;;2.80;;
12181;SDS011;6154;51.550;12.138;2023-05-27T02:17:16;5.43;;;2.53;;
12181;SDS011;6154;51.550;12.138;2023-05-27T02:19:44;6.78;;;2.83;;
12181;SDS011;6154;51.550;12.138;2023-05-27T02:22:12;5.90;;;2.72;;
12181;SDS011;6154;51.550;12.138;2023-05-27T02:24:41;5.60;;;2.62;;
12181;SDS011;6154;51.550;12.138;2023-05-27T02:27:09;5.57;;;2.47;;
12181;SDS011;6154;51.550;12.138;2023-05-27T02:29:37;3.58;;;2.03;;
12181;SDS011;6154;51.550;12.138;2023-05-27T02:32:07;8.98;;;2.90;;
12181;SDS011;6154;51.550;12.138;2023-05-27T02:34:35;7.15;;;2.45;;
12181;SDS011;6154;51.550;12.138;2023-05-27T02:37:05;5.78;;;2.37;;
12181;SDS011;6154;51.550;12.138;2023-05-27T02:39:33;7.80;;;2.55;;
12181;SDS011;6154;51.550;12.138;2023-05-27T02:42:01;5.70;;;2.50;;
12181;SDS011;6154;51.550;12.138;2023-05-27T02:44:30;4.43;;;2.08;;
12181;SDS011;6154;51.550;12.138;2023-05-27T02:46:58;8.90;;;2.35;;
12181;SDS011;6154;51.550;12.138;2023-05-27T02:49:28;9.25;;;2.30;;
12181;SDS011;6154;51.550;12.138;2023-05-27T02:51:56;5.07;;;2.62;;
12181;SDS011;6154;51.550;12.138;2023-05-27T02:54:24;8.38;;;2.70;;
12181;SDS011;6154;51.550;12.138;2023-05-27T02:56:52;8.80;;;3.60;;
12181;SDS011;6154;51.550;12.138;2023-05-27T02:59:21;8.40;;;2.55;;
12181;SDS011;6154;51.550;12.138;2023-05-27T03:01:49;10.63;;;2.45;;
12181;SDS011;6154;51.550;12.138;2023-05-27T03:04:17;4.97;;;2.53;;
12181;SDS011;6154;51.550;12.138;2023-05-27T03:06:49;7.07;;;2.60;;
12181;SDS011;6154;51.550;12.138;2023-05-27T03:09:17;8.13;;;2.55;;
12181;SDS011;6154;51.550;12.138;2023-05-27T03:11:45;5.40;;;2.58;;
12181;SDS011;6154;51.550;12.138;2023-05-27T03:14:14;4.15;;;1.77;;
12181;SDS011;6154;51.550;12.138;2023-05-27T03:16:42;3.55;;;2.05;;
12181;SDS011;6154;51.550;12.138;2023-05-27T03:19:10;6.60;;;2.37;;
12181;SDS011;6154;51.550;12.138;2023-05-27T03:21:38;7.55;;;2.45;;
12181;SDS011;6154;51.550;12.138;2023-05-27T03:24:08;5.95;;;1.98;;
12181;SDS011;6154;51.550;12.138;2023-05-27T03:26:37;8.10;;;2.65;;
12181;SDS011;6154;51.550;12.138;2023-05-27T03:29:05;3.03;;;1.90;;
12181;SDS011;6154;51.550;12.138;2023-05-27T03:31:33;4.87;;;2.05;;
12181;SDS011;6154;51.550;12.138;2023-05-27T03:34:02;6.00;;;2.28;;
12181;SDS011;6154;51.550;12.138;2023-05-27T03:36:30;5.80;;;2.87;;
12181;SDS011;6154;51.550;12.138;2023-05-27T03:38:59;6.50;;;2.40;;
12181;SDS011;6154;51.550;12.138;2023-05-27T03:41:30;6.68;;;2.55;;
12181;SDS011;6154;51.550;12.138;2023-05-27T03:43:59;4.80;;;2.08;;
12181;SDS011;6154;51.550;12.138;2023-05-27T03:46:27;5.87;;;2.50;;
12181;SDS011;6154;51.550;12.138;2023-05-27T03:48:57;7.10;;;2.05;;
12181;SDS011;6154;51.550;12.138;2023-05-27T03:51:25;7.47;;;2.45;;
12181;SDS011;6154;51.550;12.138;2023-05-27T03:53:53;7.20;;;2.53;;
12181;SDS011;6154;51.550;12.138;2023-05-27T03:56:22;6.40;;;2.28;;
12181;SDS011;6154;51.550;12.138;2023-05-27T03:58:51;8.13;;;2.55;;
12181;SDS011;6154;51.550;12.138;2023-05-27T04:01:20;6.65;;;2.42;;
12181;SDS011;6154;51.550;12.138;2023-05-27T04:03:49;10.18;;;3.10;;
12181;SDS011;6154;51.550;12.138;2023-05-27T04:06:18;9.88;;;2.75;;
12181;SDS011;6154;51.550;12.138;2023-05-27T04:08:46;7.10;;;1.87;;
12181;SDS011;6154;51.550;12.138;2023-05-27T04:11:15;7.12;;;2.33;;
12181;SDS011;6154;51.550;12.138;2023-05-27T04:13:43;9.13;;;3.00;;
12181;SDS011;6154;51.550;12.138;2023-05-27T04:16:13;7.10;;;2.55;;
12181;SDS011;6154;51.550;12.138;2023-05-27T04:18:42;5.47;;;2.37;;
12181;SDS011;6154;51.550;12.138;2023-05-27T04:21:15;7.37;;;2.20;;
12181;SDS011;6154;51.550;12.138;2023-05-27T04:23:44;5.72;;;2.85;;
12181;SDS011;6154;51.550;12.138;2023-05-27T04:26:12;6.12;;;2.45;;
12181;SDS011;6154;51.550;12.138;2023-05-27T04:28:41;7.28;;;2.50;;
12181;SDS011;6154;51.550;12.138;2023-05-27T04:31:13;5.93;;;2.28;;
12181;SDS011;6154;51.550;12.138;2023-05-27T04:33:43;10.07;;;2.70;;
12181;SDS011;6154;51.550;12.138;2023-05-27T04:36:11;9.30;;;2.30;;
12181;SDS011;6154;51.550;12.138;2023-05-27T04:38:40;5.60;;;2.05;;
12181;SDS011;6154;51.550;12.138;2023-05-27T04:41:12;9.38;;;2.50;;
12181;SDS011;6154;51.550;12.138;2023-05-27T04:43:41;12.52;;;2.83;;
12181;SDS011;6154;51.550;12.138;2023-05-27T04:46:11;4.85;;;1.60;;
12181;SDS011;6154;51.550;12.138;2023-05-27T04:48:42;6.80;;;2.87;;
12181;SDS011;6154;51.550;12.138;2023-05-27T04:51:13;6.62;;;2.55;;
12181;SDS011;6154;51.550;12.138;2023-05-27T04:53:42;9.10;;;2.40;;
12181;SDS011;6154;51.550;12.138;2023-05-27T04:56:11;7.50;;;2.30;;
12181;SDS011;6154;51.550;12.138;2023-05-27T04:58:42;6.68;;;3.03;;
12181;SDS011;6154;51.550;12.138;2023-05-27T05:01:13;8.15;;;2.80;;
12181;SDS011;6154;51.550;12.138;2023-05-27T05:03:46;8.40;;;2.85;;
12181;SDS011;6154;51.550;12.138;2023-05-27T05:06:19;11.38;;;2.78;;
12181;SDS011;6154;51.550;12.138;2023-05-27T05:08:49;8.57;;;2.58;;
12181;SDS011;6154;51.550;12.138;2023-05-27T05:11:18;7.47;;;3.10;;
12181;SDS011;6154;51.550;12.138;2023-05-27T05:13:46;5.50;;;3.08;;
12181;SDS011;6154;51.550;12.138;2023-05-27T05:16:15;4.97;;;2.53;;
12181;SDS011;6154;51.550;12.138;2023-05-27T05:18:43;7.40;;;2.62;;
12181;SDS011;6154;51.550;12.138;2023-05-27T05:21:12;7.65;;;3.35;;
12181;SDS011;6154;51.550;12.138;2023-05-27T05:23:41;6.85;;;2.65;;
12181;SDS011;6154;51.550;12.138;2023-05-27T05:26:09;6.18;;;2.62;;
12181;SDS011;6154;51.550;12.138;2023-05-27T05:28:38;5.32;;;2.70;;
12181;SDS011;6154;51.550;12.138;2023-05-27T05:31:06;5.87;;;2.37;;
12181;SDS011;6154;51.550;12.138;2023-05-27T05:33:35;5.87;;;2.83;;
12181;SDS011;6154;51.550;12.138;2023-05-27T05:36:03;7.47;;;2.62;;
12181;SDS011;6154;51.550;12.138;2023-05-27T05:38:33;4.03;;;2.37;;
12181;SDS011;6154;51.550;12.138;2023-05-27T05:41:01;7.57;;;2.83;;
12181;SDS011;6154;51.550;12.138;2023-05-27T05:43:30;8.05;;;2.75;;
12181;SDS011;6154;51.550;12.138;2023-05-27T05:45:59;8.75;;;3.55;;
12181;SDS011;6154;51.550;12.138;2023-05-27T05:48:29;8.05;;;3.03;;
12181;SDS011;6154;51.550;12.138;2023-05-27T05:50:57;6.35;;;2.62;;
12181;SDS011;6154;51.550;12.138;2023-05-27T05:53:28;5.40;;;2.62;;
12181;SDS011;6154;51.550;12.138;2023-05-27T05:56:00;6.82;;;2.55;;
12181;SDS011;6154;51.550;12.138;2023-05-27T05:58:28;4.57;;;2.60;;
12181;SDS011;6154;51.550;12.138;2023-05-27T06:00:56;3.92;;;2.25;;
12181;SDS011;6154;51.550;12.138;2023-05-27T06:03:26;7.25;;;3.47;;
12181;SDS011;6154;51.550;12.138;2023-05-27T06:05:54;7.20;;;2.78;;
12181;SDS011;6154;51.550;12.138;2023-05-27T06:08:22;8.20;;;2.90;;
12181;SDS011;6154;51.550;12.138;2023-05-27T06:10:51;4.70;;;2.60;;
12181;SDS011;6154;51.550;12.138;2023-05-27T06:13:21;7.12;;;2.70;;
12181;SDS011;6154;51.550;12.138;2023-05-27T06:15:50;7.68;;;2.62;;
12181;SDS011;6154;51.550;12.138;2023-05-27T06:18:19;9.75;;;2.60;;
12181;SDS011;6154;51.550;12.138;2023-05-27T06:20:47;8.98;;;3.05;;
12181;SDS011;6154;51.550;12.138;2023-05-27T06:23:16;7.57;;;3.12;;
12181;SDS011;6154;51.550;12.138;2023-05-27T06:25:46;7.85;;;3.20;;
12181;SDS011;6154;51.550;12.138;2023-05-27T06:28:15;9.27;;;2.78;;
12181;SDS011;6154;51.550;12.138;2023-05-27T06:30:44;10.00;;;3.00;;
12181;SDS011;6154;51.550;12.138;2023-05-27T06:33:13;5.50;;;3.25;;
12181;SDS011;6154;51.550;12.138;2023-05-27T06:35:41;8.18;;;3.20;;
12181;SDS011;6154;51.550;12.138;2023-05-27T06:38:11;5.37;;;2.72;;
12181;SDS011;6154;51.550;12.138;2023-05-27T06:40:39;7.47;;;2.50;;
12181;SDS011;6154;51.550;12.138;2023-05-27T06:43:07;7.65;;;3.42;;
12181;SDS011;6154;51.550;12.138;2023-05-27T06:45:36;7.47;;;2.87;;
12181;SDS011;6154;51.550;12.138;2023-05-27T06:48:20;8.60;;;2.70;;
12181;SDS011;6154;51.550;12.138;2023-05-27T06:50:48;7.70;;;3.08;;
12181;SDS011;6154;51.550;12.138;2023-05-27T06:53:17;12.77;;;3.10;;
12181;SDS011;6154;51.550;12.138;2023-05-27T06:55:46;9.43;;;3.00;;
12181;SDS011;6154;51.550;12.138;2023-05-27T06:58:16;5.95;;;2.75;;
12181;SDS011;6154;51.550;12.138;2023-05-27T07:00:45;9.20;;;3.05;;
12181;SDS011;6154;51.550;12.138;2023-05-27T07:03:15;10.60;;;3.08;;
12181;SDS011;6154;51.550;12.138;2023-05-27T07:05:44;9.68;;;2.62;;
12181;SDS011;6154;51.550;12.138;2023-05-27T07:08:13;7.05;;;2.97;;
12181;SDS011;6154;51.550;12.138;2023-05-27T07:10:42;7.40;;;2.60;;
12181;SDS011;6154;51.550;12.138;2023-05-27T07:13:10;7.18;;;2.58;;
12181;SDS011;6154;51.550;12.138;2023-05-27T07:15:41;7.50;;;2.87;;
12181;SDS011;6154;51.550;12.138;2023-05-27T07:18:09;6.93;;;2.67;;
12181;SDS011;6154;51.550;12.138;2023-05-27T07:20:40;6.60;;;2.97;;
12181;SDS011;6154;51.550;12.138;2023-05-27T07:23:10;9.23;;;2.85;;
12181;SDS011;6154;51.550;12.138;2023-05-27T07:25:39;10.10;;;3.40;;
12181;SDS011;6154;51.550;12.138;2023-05-27T07:28:07;7.87;;;2.45;;
12181;SDS011;6154;51.550;12.138;2023-05-27T07:30:38;6.65;;;2.40;;
12181;SDS011;6154;51.550;12.138;2023-05-27T07:33:06;10.23;;;2.50;;
12181;SDS011;6154;51.550;12.138;2023-05-27T07:35:34;6.68;;;2.00;;
12181;SDS011;6154;51.550;12.138;2023-05-27T07:38:03;6.47;;;2.00;;
12181;SDS011;6154;51.550;12.138;2023-05-27T07:40:32;9.93;;;2.03;;
12181;SDS011;6154;51.550;12.138;2023-05-27T07:43:00;5.43;;;1.77;;
12181;SDS011;6154;51.550;12.138;2023-05-27T07:45:30;6.85;;;1.98;;
12181;SDS011;6154;51.550;12.138;2023-05-27T07:47:58;4.93;;;1.60;;
12181;SDS011;6154;51.550;12.138;2023-05-27T07:50:27;4.85;;;2.08;;
12181;SDS011;6154;51.550;12.138;2023-05-27T07:52:56;5.20;;;1.87;;
12181;SDS011;6154;51.550;12.138;2023-05-27T07:55:24;7.05;;;2.33;;
12181;SDS011;6154;51.550;12.138;2023-05-27T07:57:54;5.72;;;1.75;;
12181;SDS011;6154;51.550;12.138;2023-05-27T08:00:24;7.37;;;2.25;;
12181;SDS011;6154;51.550;12.138;2023-05-27T08:02:52;6.32;;;1.95;;
12181;SDS011;6154;51.550;12.138;2023-05-27T08:05:21;8.82;;;2.47;;
12181;SDS011;6154;51.550;12.138;2023-05-27T08:07:51;4.50;;;2.08;;
12181;SDS011;6154;51.550;12.138;2023-05-27T08:10:20;6.87;;;2.15;;
12181;SDS011;6154;51.550;12.138;2023-05-27T08:12:54;6.85;;;1.98;;
12181;SDS011;6154;51.550;12.138;2023-05-27T08:15:22;7.03;;;2.28;;
12181;SDS011;6154;51.550;12.138;2023-05-27T08:17:50;4.97;;;1.75;;
12181;SDS011;6154;51.550;12.138;2023-05-27T08:20:19;5.75;;;2.10;;
12181;SDS011;6154;51.550;12.138;2023-05-27T08:22:50;5.57;;;1.90;;
12181;SDS011;6154;51.550;12.138;2023-05-27T08:25:18;5.10;;;1.90;;
12181;SDS011;6154;51.550;12.138;2023-05-27T08:27:48;4.95;;;1.98;;
12181;SDS011;6154;51.550;12.138;2023-05-27T08:30:20;2.92;;;1.70;;
12181;SDS011;6154;51.550;12.138;2023-05-27T08:32:49;6.43;;;2.17;;
12181;SDS011;6154;51.550;12.138;2023-05-27T08:35:18;7.60;;;2.15;;
12181;SDS011;6154;51.550;12.138;2023-05-27T08:37:47;6.30;;;1.77;;
12181;SDS011;6154;51.550;12.138;2023-05-27T08:40:16;7.07;;;1.83;;
12181;SDS011;6154;51.550;12.138;2023-05-27T08:42:46;5.32;;;1.83;;
12181;SDS011;6154;51.550;12.138;2023-05-27T08:45:15;4.47;;;1.58;;
12181;SDS011;6154;51.550;12.138;2023-05-27T08:47:45;5.28;;;2.15;;
12181;SDS011;6154;51.550;12.138;2023-05-27T08:50:16;4.20;;;1.87;;
12181;SDS011;6154;51.550;12.138;2023-05-27T08:52:45;5.37;;;2.03;;
12181;SDS011;6154;51.550;12.138;2023-05-27T08:55:15;3.28;;;1.70;;
12181;SDS011;6154;51.550;12.138;2023-05-27T08:57:46;5.65;;;1.92;;
12181;SDS011;6154;51.550;12.138;2023-05-27T09:00:18;2.30;;;1.65;;
12181;SDS011;6154;51.550;12.138;2023-05-27T09:02:48;5.30;;;1.98;;
12181;SDS011;6154;51.550;12.138;2023-05-27T09:05:18;5.35;;;1.58;;
12181;SDS011;6154;51.550;12.138;2023-05-27T09:07:47;4.87;;;1.60;;
12181;SDS011;6154;51.550;12.138;2023-05-27T09:10:16;6.18;;;1.90;;
12181;SDS011;6154;51.550;12.138;2023-05-27T09:12:44;5.60;;;1.90;;
12181;SDS011;6154;51.550;12.138;2023-05-27T09:15:14;3.10;;;1.65;;
12181;SDS011;6154;51.550;12.138;2023-05-27T09:17:42;3.03;;;1.60;;
12181;SDS011;6154;51.550;12.138;2023-05-27T09:20:13;5.62;;;1.48;;
12181;SDS011;6154;51.550;12.138;2023-05-27T09:22:41;6.93;;;2.05;;
12181;SDS011;6154;51.550;12.138;2023-05-27T09:25:09;5.10;;;1.80;;
12181;SDS011;6154;51.550;12.138;2023-05-27T09:27:42;3.67;;;1.33;;
12181;SDS011;6154;51.550;12.138;2023-05-27T09:30:12;7.75;;;2.00;;
12181;SDS011;6154;51.550;12.138;2023-05-27T09:32:41;5.70;;;1.85;;
12181;SDS011;6154;51.550;12.138;2023-05-27T09:35:10;4.68;;;1.62;;
12181;SDS011;6154;51.550;12.138;2023-05-27T09:37:42;2.83;;;1.40;;
12181;SDS011;6154;51.550;12.138;2023-05-27T09:40:12;4.43;;;1.52;;
12181;SDS011;6154;51.550;12.138;2023-05-27T09:42:42;2.65;;;1.45;;
12181;SDS011;6154;51.550;12.138;2023-05-27T09:45:12;2.60;;;1.27;;
12181;SDS011;6154;51.550;12.138;2023-05-27T09:47:43;6.28;;;1.50;;
12181;SDS011;6154;51.550;12.138;2023-05-27T09:50:17;7.28;;;1.77;;
12181;SDS011;6154;51.550;12.138;2023-05-27T09:52:47;3.92;;;1.48;;
12181;SDS011;6154;51.550;12.138;2023-05-27T09:55:36;3.35;;;1.73;;
12181;SDS011;6154;51.550;12.138;2023-05-27T09:58:04;4.47;;;1.42;;
12181;SDS011;6154;51.550;12.138;2023-05-27T10:00:33;4.15;;;1.60;;
12181;SDS011;6154;51.550;12.138;2023-05-27T10:03:03;2.60;;;1.52;;
12181;SDS011;6154;51.550;12.138;2023-05-27T10:05:34;6.07;;;2.00;;
12181;SDS011;6154;51.550;12.138;2023-05-27T10:08:02;5.45;;;1.85;;
12181;SDS011;6154;51.550;12.138;2023-05-27T10:10:50;4.12;;;1.60;;
12181;SDS011;6154;51.550;12.138;2023-05-27T10:13:19;3.72;;;1.77;;
12181;SDS011;6154;51.550;12.138;2023-05-27T10:15:51;3.25;;;1.70;;
12181;SDS011;6154;51.550;12.138;2023-05-27T10:18:23;5.00;;;1.40;;
12181;SDS011;6154;51.550;12.138;2023-05-27T10:20:56;5.28;;;1.58;;
12181;SDS011;6154;51.550;12.138;2023-05-27T10:23:26;2.10;;;1.15;;
12181;SDS011;6154;51.550;12.138;2023-05-27T10:25:55;3.67;;;1.23;;
12181;SDS011;6154;51.550;12.138;2023-05-27T10:28:28;3.95;;;1.35;;
12181;SDS011;6154;51.550;12.138;2023-05-27T10:31:04;3.22;;;1.30;;
12181;SDS011;6154;51.550;12.138;2023-05-27T10:33:34;3.37;;;1.75;;
12181;SDS011;6154;51.550;12.138;2023-05-27T10:36:07;3.53;;;1.52;;
12181;SDS011;6154;51.550;12.138;2023-05-27T10:38:37;4.45;;;1.30;;
12181;SDS011;6154;51.550;12.138;2023-05-27T10:41:06;3.35;;;1.30;;
12181;SDS011;6154;51.550;12.138;2023-05-27T10:43:35;9.20;;;1.67;;
12181;SDS011;6154;51.550;12.138;2023-05-27T10:46:06;4.15;;;1.37;;
12181;SDS011;6154;51.550;12.138;2023-05-27T10:48:36;5.25;;;1.52;;
12181;SDS011;6154;51.550;12.138;2023-05-27T10:51:08;3.25;;;1.35;;
12181;SDS011;6154;51.550;12.138;2023-05-27T10:53:37;4.18;;;1.80;;
12181;SDS011;6154;51.550;12.138;2023-05-27T10:56:05;6.43;;;1.52;;
12181;SDS011;6154;51.550;12.138;2023-05-27T10:58:36;4.72;;;1.25;;
12181;SDS011;6154;51.550;12.138;2023-05-27T11:01:09;3.08;;;1.25;;
12181;SDS011;6154;51.550;12.138;2023-05-27T11:03:42;4.50;;;1.65;;
12181;SDS011;6154;51.550;12.138;2023-05-27T11:06:14;3.92;;;1.37;;
12181;SDS011;6154;51.550;12.138;2023-05-27T11:08:43;2.58;;;1.12;;
12181;SDS011;6154;51.550;12.138;2023-05-27T11:11:12;4.95;;;1.50;;
12181;SDS011;6154;51.550;12.138;2023-05-27T11:13:41;4.15;;;1.33;;
12181;SDS011;6154;51.550;12.138;2023-05-27T11:16:14;2.72;;;1.02;;
12181;SDS011;6154;51.550;12.138;2023-05-27T11:18:44;3.30;;;1.08;;
12181;SDS011;6154;51.550;12.138;2023-05-27T11:21:15;5.70;;;1.67;;
12181;SDS011;6154;51.550;12.138;2023-05-27T11:23:45;2.58;;;1.17;;
12181;SDS011;6154;51.550;12.138;2023-05-27T11:26:14;2.53;;;1.15;;
12181;SDS011;6154;51.550;12.138;2023-05-27T11:28:50;2.55;;;1.50;;
12181;SDS011;6154;51.550;12.138;2023-05-27T11:31:20;3.92;;;1.42;;
12181;SDS011;6154;51.550;12.138;2023-05-27T11:33:50;2.28;;;1.40;;
12181;SDS011;6154;51.550;12.138;2023-05-27T11:36:20;2.53;;;1.15;;
12181;SDS011;6154;51.550;12.138;2023-05-27T11:38:48;4.37;;;1.75;;
12181;SDS011;6154;51.550;12.138;2023-05-27T11:41:18;2.35;;;1.20;;
12181;SDS011;6154;51.550;12.138;2023-05-27T11:43:48;3.50;;;1.30;;
12181;SDS011;6154;51.550;12.138;2023-05-27T11:46:21;5.25;;;1.45;;
12181;SDS011;6154;51.550;12.138;2023-05-27T11:48:50;2.65;;;1.10;;
12181;SDS011;6154;51.550;12.138;2023-05-27T11:51:27;2.70;;;1.37;;
12181;SDS011;6154;51.550;12.138;2023-05-27T11:53:57;2.90;;;1.27;;
12181;SDS011;6154;51.550;12.138;2023-05-27T11:56:27;2.72;;;1.48;;
12181;SDS011;6154;51.550;12.138;2023-05-27T11:58:56;2.35;;;1.10;;
12181;SDS011;6154;51.550;12.138;2023-05-27T12:01:26;3.42;;;1.12;;
12181;SDS011;6154;51.550;12.138;2023-05-27T12:03:54;3.60;;;1.40;;
12181;SDS011;6154;51.550;12.138;2023-05-27T12:06:22;3.95;;;1.27;;
12181;SDS011;6154;51.550;12.138;2023-05-27T12:08:52;4.25;;;1.37;;
12181;SDS011;6154;51.550;12.138;2023-05-27T12:11:20;4.12;;;1.30;;
12181;SDS011;6154;51.550;12.138;2023-05-27T12:13:48;6.25;;;1.52;;
12181;SDS011;6154;51.550;12.138;2023-05-27T12:16:17;6.60;;;1.50;;
12181;SDS011;6154;51.550;12.138;2023-05-27T12:18:46;4.75;;;1.50;;
12181;SDS011;6154;51.550;12.138;2023-05-27T12:21:14;2.83;;;1.15;;
12181;SDS011;6154;51.550;12.138;2023-05-27T12:23:43;2.80;;;1.05;;
12181;SDS011;6154;51.550;12.138;2023-05-27T12:26:13;5.10;;;1.35;;
12181;SDS011;6154;51.550;12.138;2023-05-27T12:28:42;2.97;;;1.50;;
12181;SDS011;6154;51.550;12.138;2023-05-27T12:31:10;3.92;;;1.35;;
12181;SDS011;6154;51.550;12.138;2023-05-27T12:33:39;3.45;;;1.10;;
12181;SDS011;6154;51.550;12.138;2023-05-27T12:36:07;3.33;;;1.60;;
12181;SDS011;6154;51.550;12.138;2023-05-27T12:38:37;4.10;;;1.00;;
12181;SDS011;6154;51.550;12.138;2023-05-27T12:41:06;7.07;;;1.25;;
12181;SDS011;6154;51.550;12.138;2023-05-27T12:43:36;5.05;;;1.27;;
12181;SDS011;6154;51.550;12.138;2023-05-27T12:46:04;3.85;;;1.35;;
12181;SDS011;6154;51.550;12.138;2023-05-27T12:48:32;4.18;;;1.08;;
12181;SDS011;6154;51.550;12.138;2023-05-27T12:51:00;4.18;;;1.10;;
12181;SDS011;6154;51.550;12.138;2023-05-27T12:53:30;3.92;;;1.45;;
12181;SDS011;6154;51.550;12.138;2023-05-27T12:55:58;4.62;;;1.00;;
12181;SDS011;6154;51.550;12.138;2023-05-27T12:58:26;1.92;;;1.08;;
12181;SDS011;6154;51.550;12.138;2023-05-27T13:00:55;1.75;;;1.00;;
12181;SDS011;6154;51.550;12.138;2023-05-27T13:03:24;1.67;;;1.20;;
12181;SDS011;6154;51.550;12.138;2023-05-27T13:05:52;2.75;;;0.90;;
12181;SDS011;6154;51.550;12.138;2023-05-27T13:08:21;2.70;;;1.05;;
12181;SDS011;6154;51.550;12.138;2023-05-27T13:10:49;3.47;;;1.10;;
12181;SDS011;6154;51.550;12.138;2023-05-27T13:13:18;3.00;;;1.27;;
12181;SDS011;6154;51.550;12.138;2023-05-27T13:15:47;1.75;;;0.98;;
12181;SDS011;6154;51.550;12.138;2023-05-27T13:18:17;2.83;;;1.20;;
12181;SDS011;6154;51.550;12.138;2023-05-27T13:20:45;1.50;;;1.12;;
12181;SDS011;6154;51.550;12.138;2023-05-27T13:23:14;2.53;;;1.10;;
12181;SDS011;6154;51.550;12.138;2023-05-27T13:25:42;2.30;;;1.20;;
12181;SDS011;6154;51.550;12.138;2023-05-27T13:28:10;3.30;;;1.10;;
12181;SDS011;6154;51.550;12.138;2023-05-27T13:30:38;3.50;;;1.10;;
12181;SDS011;6154;51.550;12.138;2023-05-27T13:33:07;3.35;;;1.30;;
12181;SDS011;6154;51.550;12.138;2023-05-27T13:35:37;2.15;;;1.10;;
12181;SDS011;6154;51.550;12.138;2023-05-27T13:38:05;1.73;;;0.98;;
12181;SDS011;6154;51.550;12.138;2023-05-27T13:40:38;1.60;;;0.80;;
12181;SDS011;6154;51.550;12.138;2023-05-27T13:43:07;3.33;;;1.25;;
12181;SDS011;6154;51.550;12.138;2023-05-27T13:45:36;2.47;;;1.05;;
12181;SDS011;6154;51.550;12.138;2023-05-27T13:48:04;1.85;;;0.80;;
12181;SDS011;6154;51.550;12.138;2023-05-27T13:50:32;2.78;;;1.25;;
12181;SDS011;6154;51.550;12.138;2023-05-27T13:53:02;2.12;;;1.20;;
12181;SDS011;6154;51.550;12.138;2023-05-27T13:55:31;5.93;;;1.20;;
12181;SDS011;6154;51.550;12.138;2023-05-27T13:57:59;3.80;;;1.12;;
12181;SDS011;6154;51.550;12.138;2023-05-27T14:00:27;2.12;;;1.00;;
12181;SDS011;6154;51.550;12.138;2023-05-27T14:02:57;2.70;;;1.00;;
12181;SDS011;6154;51.550;12.138;2023-05-27T14:05:26;4.70;;;1.12;;
12181;SDS011;6154;51.550;12.138;2023-05-27T14:07:55;1.65;;;0.93;;
12181;SDS011;6154;51.550;12.138;2023-05-27T14:10:25;3.15;;;0.93;;
12181;SDS011;6154;51.550;12.138;2023-05-27T14:12:53;3.03;;;1.30;;
12181;SDS011;6154;51.550;12.138;2023-05-27T14:15:21;2.20;;;1.00;;
12181;SDS011;6154;51.550;12.138;2023-05-27T14:17:49;4.75;;;1.05;;
12181;SDS011;6154;51.550;12.138;2023-05-27T14:20:18;2.55;;;0.85;;
12181;SDS011;6154;51.550;12.138;2023-05-27T14:22:46;2.20;;;1.00;;
12181;SDS011;6154;51.550;12.138;2023-05-27T14:25:14;1.27;;;0.77;;
12181;SDS011;6154;51.550;12.138;2023-05-27T14:27:45;1.92;;;0.82;;
12181;SDS011;6154;51.550;12.138;2023-05-27T14:30:13;2.85;;;1.15;;
12181;SDS011;6154;51.550;12.138;2023-05-27T14:32:42;2.72;;;1.02;;
12181;SDS011;6154;51.550;12.138;2023-05-27T14:35:10;2.47;;;1.00;;
12181;SDS011;6154;51.550;12.138;2023-05-27T14:37:39;2.80;;;1.15;;
12181;SDS011;6154;51.550;12.138;2023-05-27T14:40:07;1.10;;;0.73;;
12181;SDS011;6154;51.550;12.138;2023-05-27T14:42:36;1.62;;;1.02;;
12181;SDS011;6154;51.550;12.138;2023-05-27T14:45:06;5.20;;;1.10;;
12181;SDS011;6154;51.550;12.138;2023-05-27T14:47:35;1.50;;;1.15;;
12181;SDS011;6154;51.550;12.138;2023-05-27T14:50:03;2.90;;;0.98;;
12181;SDS011;6154;51.550;12.138;2023-05-27T14:52:32;1.05;;;0.60;;
12181;SDS011;6154;51.550;12.138;2023-05-27T14:55:00;2.85;;;1.08;;
12181;SDS011;6154;51.550;12.138;2023-05-27T14:57:28;1.20;;;0.70;;
12181;SDS011;6154;51.550;12.138;2023-05-27T15:00:01;1.95;;;0.93;;
12181;SDS011;6154;51.550;12.138;2023-05-27T15:02:32;3.17;;;1.02;;